createdAt,value
2018-06-19T00:00:31.980Z,85.24
2018-06-19T00:01:32.221Z,84.85
2018-06-19T00:02:31.972Z,85.14
2018-06-19T00:03:32.243Z,85.52
2018-06-19T00:04:32.236Z,85.33
2018-06-19T00:05:32.226Z,85.62
2018-06-19T00:06:31.988Z,85.52
2018-06-19T00:07:32.228Z,85.71
2018-06-19T00:08:31.986Z,85.04
2018-06-19T00:09:31.971Z,85.42
2018-06-19T00:10:31.976Z,85.24
2018-06-19T00:11:32.229Z,85.71
2018-06-19T00:12:32.228Z,85.81
2018-06-19T00:13:32.243Z,85.81
2018-06-19T00:14:32.242Z,85.52
2018-06-19T00:15:31.988Z,85.91
2018-06-19T00:16:31.989Z,85.52
2018-06-19T00:17:31.976Z,86.48
2018-06-19T00:18:32.237Z,86
2018-06-19T00:19:32.226Z,86.19
2018-06-19T00:20:32.228Z,86.29
2018-06-19T00:21:32.229Z,86.19
2018-06-19T00:22:31.990Z,86
2018-06-19T00:23:32.255Z,85.71
2018-06-19T00:24:32.234Z,86.29
2018-06-19T00:25:32.231Z,86.1
2018-06-19T00:26:31.992Z,86.38
2018-06-19T00:27:31.982Z,86.29
2018-06-19T00:28:32.004Z,86.1
2018-06-19T00:29:32.245Z,86.38
2018-06-19T00:30:32.248Z,86.87
2018-06-19T00:31:32.016Z,86.77
2018-06-19T00:32:32.244Z,86.77
2018-06-19T00:33:32.265Z,87.05
2018-06-19T00:34:32.245Z,87.35
2018-06-19T00:35:32.246Z,87.73
2018-06-19T00:36:32.233Z,87.63
2018-06-19T00:37:31.995Z,87.82
2018-06-19T00:38:32.005Z,88.02
2018-06-19T00:39:31.998Z,88.11
2018-06-19T00:40:32.245Z,88.21
2018-06-19T00:41:32.007Z,88.88
2018-06-19T00:42:32.247Z,88.55
2018-06-19T00:43:32.255Z,88.79
2018-06-19T00:44:32.243Z,88.84
2018-06-19T00:45:32.250Z,88.88
2018-06-19T00:46:31.991Z,88.88
2018-06-19T00:47:32.026Z,89.07
2018-06-19T00:48:32.006Z,88.98
2018-06-19T00:49:32.248Z,88.69
2018-06-19T00:50:31.997Z,88.49
2018-06-19T00:51:32.279Z,88.49
2018-06-19T00:52:31.999Z,88.11
2018-06-19T00:53:32.010Z,88.31
2018-06-19T00:54:32.011Z,87.92
2018-06-19T00:55:32.248Z,88.4
2018-06-19T00:56:32.344Z,88.4
2018-06-19T00:57:32.009Z,88.69
2018-06-19T00:58:32.270Z,88.69
2018-06-19T00:59:32.251Z,88.79
2018-06-19T01:00:32.260Z,88.49
2018-06-19T01:01:32.013Z,88.59
2018-06-19T01:02:32.269Z,88.88
2018-06-19T01:03:32.020Z,89.22
2018-06-19T01:04:32.003Z,89.7
2018-06-19T01:05:32.268Z,89.89
2018-06-19T01:06:32.261Z,90.18
2018-06-19T01:07:32.020Z,89.99
2018-06-19T01:08:32.290Z,90.42
2018-06-19T01:09:32.258Z,89.84
2018-06-19T01:10:32.018Z,89.89
2018-06-19T01:11:32.010Z,89.84
2018-06-19T01:12:32.258Z,89.51
2018-06-19T01:13:32.345Z,89.65
2018-06-19T01:14:32.317Z,90.08
2018-06-19T01:15:32.265Z,90.47
2018-06-19T01:16:32.267Z,90.75
2018-06-19T01:17:32.275Z,90.85
2018-06-19T01:18:32.020Z,90.95
2018-06-19T01:19:32.264Z,90.66
2018-06-19T01:20:32.133Z,91.33
2018-06-19T01:21:32.279Z,91.05
2018-06-19T01:22:32.012Z,91.14
2018-06-19T01:23:32.031Z,91.33
2018-06-19T01:24:32.269Z,91.42
2018-06-19T01:25:32.034Z,91.62
2018-06-19T01:26:32.275Z,91.81
2018-06-19T01:27:32.279Z,91.62
2018-06-19T01:28:32.105Z,91.72
2018-06-19T01:29:32.023Z,92.19
2018-06-19T01:30:32.271Z,92.39
2018-06-19T01:31:32.272Z,92.1
2018-06-19T01:32:32.272Z,93.3
2018-06-19T01:33:32.280Z,92.86
2018-06-19T01:34:32.024Z,93.06
2018-06-19T01:35:32.283Z,93.15
2018-06-19T01:36:32.280Z,93.06
2018-06-19T01:37:32.282Z,93.15
2018-06-19T01:38:32.292Z,92.29
2018-06-19T01:39:32.022Z,92.29
2018-06-19T01:40:32.283Z,91.91
2018-06-19T01:41:32.024Z,91.72
2018-06-19T01:42:32.273Z,91.14
2018-06-19T01:43:32.043Z,91.52
2018-06-19T01:44:32.275Z,91.33
2018-06-19T01:45:32.289Z,92.29
2018-06-19T01:46:32.289Z,92.19
2018-06-19T01:47:32.284Z,92.19
2018-06-19T01:48:32.287Z,91.91
2018-06-19T01:49:32.022Z,91.33
2018-06-19T01:50:32.281Z,91.42
2018-06-19T01:51:32.300Z,91.38
2018-06-19T01:52:32.276Z,91.42
2018-06-19T01:53:32.283Z,91.19
2018-06-19T01:54:32.287Z,91.47
2018-06-19T01:55:32.028Z,90.85
2018-06-19T01:56:32.280Z,91.52
2018-06-19T01:57:32.026Z,91.28
2018-06-19T01:58:32.305Z,91.33
2018-06-19T01:59:32.036Z,90.95
2018-06-19T02:00:32.287Z,91.33
2018-06-19T02:01:32.030Z,91.33
2018-06-19T02:02:32.279Z,91.14
2018-06-19T02:03:32.287Z,91.19
2018-06-19T02:04:32.031Z,90.85
2018-06-19T02:05:32.284Z,91.52
2018-06-19T02:06:32.282Z,91.24
2018-06-19T02:07:32.033Z,91.14
2018-06-19T02:08:32.056Z,92.19
2018-06-19T02:09:32.040Z,92.19
2018-06-19T02:10:32.036Z,92.58
2018-06-19T02:11:32.033Z,91.72
2018-06-19T02:12:32.031Z,91.14
2018-06-19T02:13:32.044Z,91.52
2018-06-19T02:14:32.287Z,91.52
2018-06-19T02:15:32.298Z,91.47
2018-06-19T02:16:32.043Z,91.57
2018-06-19T02:17:32.043Z,91.38
2018-06-19T02:18:32.360Z,90.8
2018-06-19T02:19:32.373Z,90.8
2018-06-19T02:20:32.045Z,90.99
2018-06-19T02:21:32.289Z,91.19
2018-06-19T02:22:32.286Z,91.09
2018-06-19T02:23:32.310Z,90.61
2018-06-19T02:24:32.300Z,90.61
2018-06-19T02:25:32.045Z,91.09
2018-06-19T02:26:32.037Z,91.19
2018-06-19T02:27:32.301Z,91.76
2018-06-19T02:28:32.041Z,92.29
2018-06-19T02:29:32.298Z,92.48
2018-06-19T02:30:32.295Z,92.19
2018-06-19T02:31:32.304Z,92.39
2018-06-19T02:32:32.298Z,91.72
2018-06-19T02:33:32.335Z,91.57
2018-06-19T02:34:32.305Z,91.28
2018-06-19T02:35:32.300Z,90.8
2018-06-19T02:36:32.311Z,90.42
2018-06-19T02:37:32.050Z,89.75
2018-06-19T02:38:32.312Z,90.8
2018-06-19T02:39:32.039Z,90.32
2018-06-19T02:40:32.298Z,90.61
2018-06-19T02:41:32.294Z,90.42
2018-06-19T02:42:32.305Z,90.61
2018-06-19T02:43:32.057Z,90.13
2018-06-19T02:44:32.042Z,91.47
2018-06-19T02:45:32.045Z,90.99
2018-06-19T02:46:32.296Z,91.52
2018-06-19T02:47:33.107Z,92.19
2018-06-19T02:48:32.309Z,92.19
2018-06-19T02:49:32.303Z,92.48
2018-06-19T02:50:32.299Z,93.06
2018-06-19T02:51:32.378Z,92.77
2018-06-19T02:52:32.348Z,92.86
2018-06-19T02:53:32.318Z,92.48
2018-06-19T02:54:32.304Z,92.39
2018-06-19T02:55:32.303Z,92.19
2018-06-19T02:56:32.298Z,92.58
2018-06-19T02:57:32.304Z,92
2018-06-19T02:58:32.310Z,92.1
2018-06-19T02:59:32.298Z,92.48
2018-06-19T03:00:32.541Z,92.86
2018-06-19T03:01:32.299Z,93.25
2018-06-19T03:02:32.043Z,93.44
2018-06-19T03:03:32.081Z,93.44
2018-06-19T03:04:32.304Z,93.35
2018-06-19T03:05:32.307Z,93.92
2018-06-19T03:06:32.299Z,93.44
2018-06-19T03:07:32.313Z,92.96
2018-06-19T03:08:32.316Z,93.25
2018-06-19T03:09:32.326Z,93.82
2018-06-19T03:10:32.306Z,93.92
2018-06-19T03:11:32.059Z,94.02
2018-06-19T03:12:32.044Z,94.02
2018-06-19T03:13:32.307Z,93.92
2018-06-19T03:14:32.298Z,93.73
2018-06-19T03:15:32.305Z,93.63
2018-06-19T03:16:32.314Z,94.59
2018-06-19T03:17:32.301Z,95.07
2018-06-19T03:18:32.306Z,95.7
2018-06-19T03:19:32.312Z,95.7
2018-06-19T03:20:32.297Z,95.65
2018-06-19T03:21:32.300Z,95.65
2018-06-19T03:22:32.323Z,95.55
2018-06-19T03:23:32.056Z,95.31
2018-06-19T03:24:32.303Z,95.6
2018-06-19T03:25:32.306Z,96.27
2018-06-19T03:26:32.290Z,96.56
2018-06-19T03:27:32.298Z,96.37
2018-06-19T03:28:32.301Z,96.47
2018-06-19T03:29:32.043Z,96.27
2018-06-19T03:30:32.038Z,95.89
2018-06-19T03:31:32.290Z,95.6
2018-06-19T03:32:32.299Z,95.75
2018-06-19T03:33:32.304Z,95.75
2018-06-19T03:34:32.293Z,95.07
2018-06-19T03:35:32.051Z,94.88
2018-06-19T03:36:32.035Z,94.98
2018-06-19T03:37:32.297Z,94.79
2018-06-19T03:38:32.294Z,94.88
2018-06-19T03:39:32.287Z,94.21
2018-06-19T03:40:32.033Z,94.12
2018-06-19T03:41:32.277Z,94.21
2018-06-19T03:42:32.285Z,94.12
2018-06-19T03:43:32.313Z,94.21
2018-06-19T03:44:32.290Z,94.02
2018-06-19T03:45:32.285Z,94.02
2018-06-19T03:46:32.284Z,94.88
2018-06-19T03:47:32.283Z,95.46
2018-06-19T03:48:32.297Z,94.98
2018-06-19T03:49:32.048Z,94.98
2018-06-19T03:50:32.288Z,94.88
2018-06-19T03:51:32.286Z,94.88
2018-06-19T03:52:32.282Z,94.88
2018-06-19T03:53:32.295Z,94.88
2018-06-19T03:54:32.291Z,94.02
2018-06-19T03:55:32.033Z,94.02
2018-06-19T03:56:32.288Z,93.92
2018-06-19T03:57:32.286Z,93.63
2018-06-19T03:58:32.299Z,93.82
2018-06-19T03:59:32.039Z,94.12
2018-06-19T04:00:32.280Z,94.31
2018-06-19T04:01:32.037Z,94.02
2018-06-19T04:02:32.288Z,94.02
2018-06-19T04:03:32.301Z,94.31
2018-06-19T04:04:32.044Z,93.92
2018-06-19T04:05:32.296Z,93.54
2018-06-19T04:06:32.292Z,93.15
2018-06-19T04:07:32.288Z,93.1
2018-06-19T04:08:32.302Z,92.43
2018-06-19T04:09:32.297Z,92.68
2018-06-19T04:10:32.054Z,92.63
2018-06-19T04:11:32.307Z,91.66
2018-06-19T04:12:32.036Z,91.66
2018-06-19T04:13:32.315Z,91.38
2018-06-19T04:14:32.316Z,90.61
2018-06-19T04:15:32.291Z,90.13
2018-06-19T04:16:32.068Z,90.46
2018-06-19T04:17:32.037Z,89.98
2018-06-19T04:18:32.047Z,89.6
2018-06-19T04:19:32.333Z,89.4
2018-06-19T04:20:32.297Z,88.93
2018-06-19T04:21:32.043Z,89.22
2018-06-19T04:22:32.340Z,89.22
2018-06-19T04:23:32.309Z,89.12
2018-06-19T04:24:32.044Z,89.69
2018-06-19T04:25:35.519Z,89.31
2018-06-19T04:26:32.048Z,89.4
2018-06-19T04:27:32.098Z,89.69
2018-06-19T04:28:32.301Z,89.6
2018-06-19T04:29:32.302Z,89.5
2018-06-19T04:30:32.049Z,89.4
2018-06-19T04:31:32.304Z,88.83
2018-06-19T04:32:32.310Z,89.12
2018-06-19T04:33:32.360Z,89.69
2018-06-19T04:34:32.302Z,89.5
2018-06-19T04:35:32.303Z,89.5
2018-06-19T04:36:32.061Z,89.31
2018-06-19T04:37:32.056Z,89.6
2018-06-19T04:38:32.330Z,89.6
2018-06-19T04:39:32.071Z,89.31
2018-06-19T04:40:32.307Z,88.73
2018-06-19T04:41:32.054Z,88.54
2018-06-19T04:42:32.057Z,88.2
2018-06-19T04:43:32.072Z,87.72
2018-06-19T04:44:32.055Z,87.24
2018-06-19T04:45:32.085Z,86.76
2018-06-19T04:46:32.061Z,85.99
2018-06-19T04:47:32.313Z,84.98
2018-06-19T04:48:32.321Z,84.69
2018-06-19T04:49:32.068Z,83.73
2018-06-19T04:50:32.321Z,83.77
2018-06-19T04:51:32.081Z,83.86
2018-06-19T04:52:32.327Z,84.16
2018-06-19T04:53:32.086Z,83.67
2018-06-19T04:54:32.328Z,83.19
2018-06-19T04:55:32.098Z,82.9
2018-06-19T04:56:32.079Z,82.61
2018-06-19T04:57:32.097Z,83.77
2018-06-19T04:58:32.358Z,83.83
2018-06-19T04:59:32.348Z,83.73
2018-06-19T05:00:32.353Z,83.53
2018-06-19T05:01:32.359Z,83.48
2018-06-19T05:02:32.340Z,83.58
2018-06-19T05:03:32.381Z,83.86
2018-06-19T05:04:32.344Z,83.96
2018-06-19T05:05:32.358Z,84.01
2018-06-19T05:06:32.354Z,84.06
2018-06-19T05:07:32.101Z,83.96
2018-06-19T05:08:32.102Z,83.29
2018-06-19T05:09:32.103Z,83.86
2018-06-19T05:10:32.103Z,83.19
2018-06-19T05:11:32.100Z,83.67
2018-06-19T05:12:32.359Z,84.25
2018-06-19T05:13:32.370Z,83.86
2018-06-19T05:14:32.368Z,84.16
2018-06-19T05:15:32.370Z,83.96
2018-06-19T05:16:32.115Z,83.67
2018-06-19T05:17:32.368Z,83.86
2018-06-19T05:18:32.381Z,83
2018-06-19T05:19:32.117Z,83.09
2018-06-19T05:20:32.377Z,82.65
2018-06-19T05:21:32.120Z,82.46
2018-06-19T05:22:32.132Z,80.06
2018-06-19T05:23:32.138Z,78.56
2018-06-19T05:24:32.134Z,77.92
2018-06-19T05:25:32.382Z,78.21
2018-06-19T05:26:32.394Z,77.44
2018-06-19T05:27:32.139Z,76.96
2018-06-19T05:28:32.400Z,76.86
2018-06-19T05:29:32.140Z,76.9
2018-06-19T05:30:32.482Z,76.61
2018-06-19T05:31:32.146Z,75.99
2018-06-19T05:32:32.404Z,76.03
2018-06-19T05:33:32.417Z,76.28
2018-06-19T05:34:32.157Z,76.9
2018-06-19T05:35:32.153Z,76.9
2018-06-19T05:36:32.409Z,77.06
2018-06-19T05:37:32.172Z,77.53
2018-06-19T05:38:32.170Z,77.73
2018-06-19T05:39:32.174Z,77.44
2018-06-19T05:40:32.423Z,77.44
2018-06-19T05:41:32.174Z,77.44
2018-06-19T05:42:32.186Z,77.53
2018-06-19T05:43:32.434Z,77.44
2018-06-19T05:44:32.184Z,77.34
2018-06-19T05:45:32.436Z,77.53
2018-06-19T05:46:32.184Z,77.53
2018-06-19T05:47:32.444Z,77.73
2018-06-19T05:48:32.449Z,77.53
2018-06-19T05:49:32.199Z,76.86
2018-06-19T05:50:32.445Z,77.44
2018-06-19T05:51:32.193Z,77.53
2018-06-19T05:52:32.454Z,77.44
2018-06-19T05:53:32.481Z,77.73
2018-06-19T05:54:32.213Z,77.98
2018-06-19T05:55:32.208Z,78.17
2018-06-19T05:56:32.479Z,78.85
2018-06-19T05:57:32.224Z,79.52
2018-06-19T05:58:32.495Z,79.23
2018-06-19T05:59:32.479Z,80.29
2018-06-19T06:00:32.470Z,80.54
2018-06-19T06:01:32.225Z,80.63
2018-06-19T06:02:32.495Z,81.21
2018-06-19T06:03:32.236Z,81.3
2018-06-19T06:04:32.505Z,81.5
2018-06-19T06:05:32.596Z,81.98
2018-06-19T06:06:32.484Z,82.37
2018-06-19T06:07:32.527Z,81.7
2018-06-19T06:08:32.503Z,81.98
2018-06-19T06:09:32.245Z,81.5
2018-06-19T06:10:32.546Z,81.6
2018-06-19T06:11:32.506Z,80.92
2018-06-19T06:12:32.503Z,79.9
2018-06-19T06:13:32.523Z,78.94
2018-06-19T06:23:05.997Z,75.4
2018-06-19T06:24:05.741Z,75.78
2018-06-19T06:25:05.746Z,75.78
2018-06-19T06:26:05.997Z,75.68
2018-06-19T06:27:05.738Z,75.1
2018-06-19T06:28:05.743Z,75.59
2018-06-19T06:29:05.995Z,75.2
2018-06-19T06:30:05.999Z,74.91
2018-06-19T06:31:05.994Z,73.6
2018-06-19T06:32:05.747Z,73.21
2018-06-19T06:33:06.030Z,72.83
2018-06-19T06:34:05.758Z,73.02
2018-06-19T06:35:06.025Z,73.21
2018-06-19T06:36:06.023Z,72.92
2018-06-19T06:37:05.844Z,73.35
2018-06-19T06:38:06.563Z,74.18
2018-06-19T06:39:06.028Z,73.69
2018-06-19T06:40:06.024Z,73.89
2018-06-19T06:41:05.766Z,76.01
2018-06-19T06:42:06.058Z,74.37
2018-06-19T06:43:05.778Z,74.95
2018-06-19T06:44:05.780Z,74.18
2018-06-19T06:45:05.782Z,74.18
2018-06-19T06:46:05.790Z,73.73
2018-06-19T06:47:06.047Z,72.86
2018-06-19T06:48:06.052Z,71.8
2018-06-19T06:49:05.802Z,71.7
2018-06-19T06:50:06.056Z,71.06
2018-06-19T06:51:06.065Z,71.64
2018-06-19T06:52:06.060Z,71.42
2018-06-19T06:53:06.058Z,71.45
2018-06-19T06:54:05.808Z,71.74
2018-06-19T06:55:06.072Z,71.03
2018-06-19T06:56:05.818Z,71.94
2018-06-19T06:57:06.066Z,71.22
2018-06-19T06:58:06.073Z,71.9
2018-06-19T06:59:06.089Z,71.9
2018-06-19T07:00:06.101Z,71.7
2018-06-19T07:01:06.138Z,71.9
2018-06-19T07:02:06.106Z,70.97
2018-06-19T07:03:06.094Z,70.1
2018-06-19T07:04:06.100Z,69.81
2018-06-19T07:05:06.110Z,69.84
2018-06-19T07:06:06.116Z,68.88
2018-06-19T07:07:06.109Z,68.33
2018-06-19T07:08:05.863Z,66.88
2018-06-19T07:09:06.121Z,66.14
2018-06-19T07:10:06.244Z,64.43
2018-06-19T07:11:05.870Z,63.89
2018-06-19T07:12:06.125Z,62.24
2018-06-19T07:13:06.395Z,63.14
2018-06-19T07:14:06.149Z,61.43
2018-06-19T07:15:06.144Z,58.29
2018-06-19T07:16:06.153Z,56.96
2018-06-19T07:17:06.162Z,55.65
2018-06-19T07:18:06.164Z,54.13
2018-06-19T07:19:06.432Z,54.42
2018-06-19T07:20:06.170Z,55.36
2018-06-19T07:21:05.925Z,56.11
2018-06-19T07:22:06.191Z,57.25
2018-06-19T07:23:06.189Z,57.64
2018-06-19T07:24:06.192Z,58.09
2018-06-19T07:25:06.202Z,59.42
2018-06-19T07:26:05.981Z,58.84
2018-06-19T07:27:06.223Z,56.57
2018-06-19T07:28:05.982Z,53.91
2018-06-19T07:29:06.229Z,52.4
2018-06-19T07:30:06.230Z,49.83
2018-06-19T07:31:06.241Z,48.32
2018-06-19T07:32:06.367Z,47.75
2018-06-19T07:33:05.993Z,46.2
2018-06-19T07:34:06.252Z,45.83
2018-06-19T07:35:06.007Z,45.65
2018-06-19T07:36:06.281Z,45.56
2018-06-19T07:37:06.277Z,46.24
2018-06-19T07:38:06.498Z,46.31
2018-06-19T07:39:06.048Z,48.07
2018-06-19T07:40:06.304Z,49.32
2018-06-19T07:41:06.045Z,49.46
2018-06-19T07:42:06.301Z,51.29
2018-06-19T07:43:06.064Z,51.26
2018-06-19T07:44:06.435Z,52.31
2018-06-19T07:45:06.339Z,53.83
2018-06-19T07:46:06.113Z,54.49
2018-06-19T07:47:06.355Z,55.04
2018-06-19T07:48:06.367Z,55.69
2018-06-19T07:49:06.107Z,56.28
2018-06-19T07:50:06.370Z,56.54
2018-06-19T07:51:06.376Z,57.39
2018-06-19T07:52:06.128Z,58.55
2018-06-19T07:53:06.382Z,59.78
2018-06-19T07:54:06.391Z,60.82
2018-06-19T07:55:06.145Z,61.11
2018-06-19T07:56:06.402Z,61.85
2018-06-19T07:57:06.423Z,62.53
2018-06-19T07:58:06.171Z,62.72
2018-06-19T07:59:06.165Z,62.98
2018-06-19T08:00:06.440Z,62.98
2018-06-19T08:01:06.429Z,63.46
2018-06-19T08:02:06.184Z,63.76
2018-06-19T08:03:06.193Z,64.31
2018-06-19T08:04:06.449Z,64.98
2018-06-19T08:05:06.453Z,64.98
2018-06-19T08:06:06.198Z,65.17
2018-06-19T08:07:06.205Z,62.63
2018-06-19T08:08:06.470Z,60.62
2018-06-19T08:09:06.219Z,56.74
2018-06-19T08:10:06.482Z,52.94
2018-06-19T08:11:06.232Z,50.95
2018-06-19T08:12:06.481Z,47.32
2018-06-19T08:13:06.489Z,45.44
2018-06-19T08:14:07.042Z,43.43
2018-06-19T08:15:06.509Z,42.89
2018-06-19T08:16:06.253Z,40.56
2018-06-19T08:17:06.259Z,41.83
2018-06-19T08:18:06.527Z,43.46
2018-06-19T08:19:06.275Z,45.46
2018-06-19T08:20:06.280Z,47.17
2018-06-19T08:21:06.546Z,48.1
2018-06-19T08:22:06.294Z,49.05
2018-06-19T08:23:06.297Z,50.97
2018-06-19T08:24:06.569Z,51.62
2018-06-19T08:25:06.316Z,51.6
2018-06-19T08:26:06.574Z,53
2018-06-19T08:27:06.574Z,53.85
2018-06-19T08:28:06.334Z,55.18
2018-06-19T08:29:06.590Z,57.19
2018-06-19T08:30:06.607Z,57.94
2018-06-19T08:31:06.602Z,58.52
2018-06-19T08:32:06.614Z,57.55
2018-06-19T08:33:06.357Z,58.11
2018-06-19T08:34:06.364Z,58.88
2018-06-19T08:35:06.635Z,58.69
2018-06-19T08:36:06.630Z,59.91
2018-06-19T08:37:06.630Z,60.11
2018-06-19T08:38:06.636Z,60.59
2018-06-19T08:39:06.659Z,61.05
2018-06-19T08:40:06.649Z,61.05
2018-06-19T08:41:06.404Z,60.85
2018-06-19T08:42:06.410Z,61.43
2018-06-19T08:43:06.665Z,62.11
2018-06-19T08:44:06.666Z,61.92
2018-06-19T08:45:06.420Z,62.01
2018-06-19T08:46:06.426Z,62.88
2018-06-19T08:47:06.684Z,62.5
2018-06-19T08:48:06.464Z,62.69
2018-06-19T08:49:06.700Z,62.3
2018-06-19T08:50:06.538Z,60.85
2018-06-19T08:51:06.755Z,58.01
2018-06-19T08:52:06.712Z,57.51
2018-06-19T08:53:06.726Z,53.59
2018-06-19T08:54:06.715Z,49.78
2018-06-19T08:55:06.487Z,46.25
2018-06-19T08:56:06.732Z,45.98
2018-06-19T08:57:06.492Z,48.29
2018-06-19T08:58:06.487Z,47.49
2018-06-19T08:59:06.523Z,47.39
2018-06-19T09:00:06.510Z,47.39
2018-06-19T09:01:06.765Z,48.73
2018-06-19T09:02:06.785Z,48.54
2018-06-19T09:03:06.513Z,49.58
2018-06-19T09:04:06.527Z,50.82
2018-06-19T09:05:06.791Z,51.21
2018-06-19T09:06:06.538Z,51.18
2018-06-19T09:07:06.795Z,52.35
2018-06-19T09:08:06.544Z,51.45
2018-06-19T09:09:06.814Z,52.03
2018-06-19T09:10:06.561Z,53.1
2018-06-19T09:11:06.566Z,53.47
2018-06-19T09:12:06.574Z,54.02
2018-06-19T09:13:06.576Z,55.08
2018-06-19T09:14:06.846Z,55.74
2018-06-19T09:15:06.585Z,56.03
2018-06-19T09:16:06.591Z,55.64
2018-06-19T09:17:06.594Z,55.18
2018-06-19T09:18:06.856Z,55.28
2018-06-19T09:19:06.864Z,55.77
2018-06-19T09:20:06.938Z,55.06
2018-06-19T09:21:06.881Z,56.35
2018-06-19T09:22:06.640Z,57.22
2018-06-19T09:23:06.894Z,56.03
2018-06-19T09:24:06.903Z,56.15
2018-06-19T09:25:06.900Z,55.38
2018-06-19T09:26:07.034Z,54.41
2018-06-19T09:27:06.909Z,54.02
2018-06-19T09:28:06.917Z,53.92
2018-06-19T09:29:06.917Z,53.17
2018-06-19T09:30:06.926Z,53.66
2018-06-19T09:31:06.678Z,54.11
2018-06-19T09:32:06.687Z,53.83
2018-06-19T09:33:06.688Z,54.21
2018-06-19T09:34:06.946Z,54.05
2018-06-19T09:35:06.713Z,54.34
2018-06-19T09:36:06.960Z,54.41
2018-06-19T09:37:06.711Z,54.8
2018-06-19T09:38:06.983Z,55.47
2018-06-19T09:39:06.726Z,55.38
2018-06-19T09:40:06.735Z,55.47
2018-06-19T09:41:06.751Z,55.87
2018-06-19T09:42:06.997Z,56.81
2018-06-19T09:43:06.747Z,57.19
2018-06-19T09:44:06.999Z,57.09
2018-06-19T09:45:07.011Z,57.19
2018-06-19T09:46:06.771Z,57.09
2018-06-19T09:47:07.169Z,57.68
2018-06-19T09:48:06.786Z,58.23
2018-06-19T09:49:07.042Z,58.72
2018-06-19T09:50:06.786Z,57.17
2018-06-19T09:51:06.789Z,56.68
2018-06-19T09:52:07.061Z,56.87
2018-06-19T09:53:07.056Z,56.77
2018-06-19T09:54:07.065Z,56.59
2018-06-19T09:55:06.808Z,57.75
2018-06-19T09:56:07.061Z,57.45
2018-06-19T09:57:06.834Z,57.17
2018-06-19T09:58:07.081Z,57.36
2018-06-19T09:59:06.882Z,57.84
2018-06-19T10:00:07.095Z,58.78
2018-06-19T10:01:07.092Z,58.98
2018-06-19T10:02:07.118Z,58.62
2018-06-19T10:03:06.846Z,58.42
2018-06-19T10:04:06.853Z,56.41
2018-06-19T10:05:07.117Z,56.15
2018-06-19T10:06:07.132Z,56.15
2018-06-19T10:07:06.864Z,54.82
2018-06-19T10:08:06.878Z,53.95
2018-06-19T10:09:07.131Z,54.6
2018-06-19T10:10:06.893Z,54.11
2018-06-19T10:11:06.891Z,53.27
2018-06-19T10:12:07.291Z,54.21
2018-06-19T10:13:06.898Z,54.5
2018-06-19T10:14:07.153Z,53.61
2018-06-19T10:15:07.160Z,53.61
2018-06-19T10:16:07.174Z,56.23
2018-06-19T10:17:06.918Z,55.74
2018-06-19T10:18:07.182Z,55.52
2018-06-19T10:19:06.923Z,55.44
2018-06-19T10:20:07.184Z,55.06
2018-06-19T10:21:07.196Z,55.06
2018-06-19T10:22:07.193Z,54.48
2018-06-19T10:23:06.950Z,54.8
2018-06-19T10:53:42.243Z,54.63
2018-06-19T10:54:42.000Z,55.79
2018-06-19T10:55:42.238Z,55.99
2018-06-19T10:56:42.268Z,55.41
2018-06-19T10:57:41.974Z,53.69
2018-06-19T10:58:42.264Z,53.49
2018-06-19T10:59:41.991Z,53.2
2018-06-19T11:00:42.254Z,52.91
2018-06-19T11:01:41.988Z,52.72
2018-06-19T11:02:42.271Z,53.1
2018-06-19T11:03:42.264Z,53.66
2018-06-19T11:04:42.270Z,54.21
2018-06-19T11:05:42.297Z,54.41
2018-06-19T11:06:42.009Z,54.99
2018-06-19T11:07:42.017Z,55.35
2018-06-19T11:08:42.281Z,54.77
2018-06-19T11:09:42.287Z,55.57
2018-06-19T11:10:42.042Z,54.31
2018-06-19T11:11:42.091Z,54.9
2018-06-19T11:12:42.301Z,54.9
2018-06-19T11:13:42.309Z,53.83
2018-06-19T11:14:42.053Z,54.24
2018-06-19T11:15:42.054Z,54.63
2018-06-19T11:16:42.063Z,54.24
2018-06-19T11:17:42.326Z,52.78
2018-06-19T11:18:42.327Z,52.91
2018-06-19T11:19:42.341Z,53.27
2018-06-19T11:20:42.360Z,54.44
2018-06-19T11:21:42.342Z,54.31
2018-06-19T11:22:42.355Z,54.8
2018-06-19T11:23:42.352Z,55.16
2018-06-19T11:24:42.366Z,54.77
2018-06-19T11:25:42.413Z,55.44
2018-06-19T11:26:42.368Z,54.67
2018-06-19T11:27:42.120Z,54.38
2018-06-19T11:28:42.123Z,55.16
2018-06-19T11:29:42.133Z,55.26
2018-06-19T11:30:42.386Z,55.04
2018-06-19T11:31:42.387Z,55.06
2018-06-19T11:32:42.411Z,54.86
2018-06-19T11:33:42.402Z,55.26
2018-06-19T11:34:42.414Z,55.16
2018-06-19T11:35:42.409Z,55.26
2018-06-19T11:36:42.559Z,55.16
2018-06-19T11:37:42.444Z,55.93
2018-06-19T11:38:42.535Z,55.28
2018-06-19T11:39:42.176Z,55.57
2018-06-19T11:40:42.195Z,54.99
2018-06-19T11:41:42.448Z,54.63
2018-06-19T11:42:42.202Z,53.85
2018-06-19T11:43:42.452Z,53.66
2018-06-19T11:44:42.475Z,53.08
2018-06-19T11:45:42.455Z,53.49
2018-06-19T11:46:42.211Z,52.72
2018-06-19T11:47:42.466Z,52.72
2018-06-19T11:48:42.469Z,52.42
2018-06-19T11:49:42.480Z,52.45
2018-06-19T11:50:42.484Z,51.28
2018-06-19T11:51:42.862Z,50.92
2018-06-19T11:52:42.494Z,51.11
2018-06-19T11:53:42.522Z,49.49
2018-06-19T11:54:42.656Z,49.58
2018-06-19T11:55:42.282Z,49.87
2018-06-19T11:56:42.273Z,51.33
2018-06-19T11:57:42.516Z,49.58
2018-06-19T11:58:42.538Z,50.19
2018-06-19T11:59:42.541Z,50.46
2018-06-19T12:00:42.559Z,50.07
2018-06-19T12:01:42.550Z,50.46
2018-06-19T12:02:42.559Z,50.56
2018-06-19T12:03:42.560Z,50.95
2018-06-19T12:04:42.560Z,50.75
2018-06-19T12:05:42.566Z,50.75
2018-06-19T12:06:42.396Z,49.68
2018-06-19T12:07:42.571Z,49.68
2018-06-19T12:08:42.580Z,49.68
2018-06-19T12:09:42.596Z,49.39
2018-06-19T12:10:42.358Z,50.16
2018-06-19T12:11:42.596Z,49.58
2018-06-19T12:12:42.618Z,49.58
2018-06-19T12:13:42.611Z,49.49
2018-06-19T12:14:42.622Z,49.1
2018-06-19T12:15:42.372Z,50.65
2018-06-19T12:16:42.631Z,51.92
2018-06-19T12:17:42.381Z,51.23
2018-06-19T12:18:42.645Z,50.09
2018-06-19T12:19:42.664Z,48.17
2018-06-19T12:20:42.660Z,47.49
2018-06-19T12:21:42.408Z,46.44
2018-06-19T12:22:42.660Z,46.15
2018-06-19T12:23:42.710Z,46.05
2018-06-19T12:24:42.440Z,45.37
2018-06-19T12:25:42.687Z,45.57
2018-06-19T12:26:42.443Z,47.2
2018-06-19T12:27:42.689Z,46.32
2018-06-19T12:28:42.707Z,45.64
2018-06-19T12:29:42.823Z,46.13
2018-06-19T12:30:42.719Z,47.47
2018-06-19T12:31:42.717Z,48.25
2018-06-19T12:32:42.726Z,47.83
2018-06-19T12:33:42.476Z,49
2018-06-19T12:34:42.483Z,50.36
2018-06-19T12:35:42.489Z,50.07
2018-06-19T12:36:42.494Z,49
2018-06-19T12:37:42.754Z,49.58
2018-06-19T12:38:42.758Z,48.83
2018-06-19T12:39:42.514Z,48.34
2018-06-19T12:40:42.522Z,48.15
2018-06-19T12:41:42.957Z,48.73
2018-06-19T12:42:42.529Z,48.34
2018-06-19T12:43:42.788Z,48.41
2018-06-19T12:44:42.541Z,48.32
2018-06-19T12:45:42.802Z,48.8
2018-06-19T12:46:42.551Z,49.1
2018-06-19T12:47:42.813Z,50.56
2018-06-19T12:48:42.824Z,51.89
2018-06-19T12:49:42.823Z,51.7
2018-06-19T12:50:42.576Z,51.57
2018-06-19T12:51:42.585Z,52.15
2018-06-19T12:52:42.840Z,50.89
2018-06-19T12:53:42.844Z,50.99
2018-06-19T12:54:42.616Z,52.74
2018-06-19T12:55:42.859Z,52.94
2018-06-19T12:56:42.615Z,51.79
2018-06-19T12:57:42.871Z,50.73
2018-06-19T12:58:42.643Z,50.46
2018-06-19T12:59:42.895Z,49.49
2018-06-19T13:00:42.635Z,49.1
2018-06-19T13:01:42.978Z,48.51
2018-06-19T13:02:42.644Z,48.22
2018-06-19T13:03:42.944Z,48.63
2018-06-19T13:04:42.665Z,48.15
2018-06-19T13:05:42.669Z,47.47
2018-06-19T13:06:42.913Z,47.17
2018-06-19T13:07:42.926Z,47.49
2018-06-19T13:08:42.692Z,46.91
2018-06-19T13:09:42.931Z,47.27
2018-06-19T13:10:43.056Z,48.15
2018-06-19T13:11:42.705Z,49.1
2018-06-19T13:12:42.704Z,50.24
2018-06-19T13:13:42.702Z,50.04
2018-06-19T13:14:42.730Z,49.66
2018-06-19T13:15:42.965Z,50.8
2018-06-19T13:16:42.977Z,52.25
2018-06-19T13:17:42.986Z,52.72
2018-06-19T13:18:42.996Z,51.65
2018-06-19T13:19:42.994Z,51.09
2018-06-19T13:20:42.997Z,53.71
2018-06-19T13:21:43.003Z,52.45
2018-06-19T13:22:42.766Z,51.48
2018-06-19T13:23:42.809Z,50.96
2018-06-19T13:24:42.779Z,50.8
2018-06-19T13:25:43.030Z,50.87
2018-06-19T13:26:43.081Z,51.28
2018-06-19T13:27:43.048Z,51.45
2018-06-19T13:28:43.037Z,52.03
2018-06-19T13:29:43.044Z,51.35
2018-06-19T13:30:43.049Z,51.26
2018-06-19T13:31:43.065Z,50.96
2018-06-19T13:32:42.806Z,51.45
2018-06-19T13:33:42.816Z,51.26